sensor_id;sensor_type;location;lat;lon;timestamp;P1;durP1;ratioP1;P2;durP2;ratioP2
51228;SDS011;37304;52.216;6.874;2023-07-13T00:01:47;4.47;;;1.10;;
51228;SDS011;37304;52.216;6.874;2023-07-13T00:06:49;3.33;;;0.82;;
51228;SDS011;37304;52.216;6.874;2023-07-13T00:11:51;2.55;;;0.90;;
51228;SDS011;37304;52.216;6.874;2023-07-13T00:16:53;7.35;;;1.02;;
51228;SDS011;37304;52.216;6.874;2023-07-13T00:21:53;4.75;;;1.17;;
51228;SDS011;37304;52.216;6.874;2023-07-13T00:26:55;3.83;;;1.17;;
51228;SDS011;37304;52.216;6.874;2023-07-13T00:31:56;2.88;;;0.90;;
51228;SDS011;37304;52.216;6.874;2023-07-13T00:36:57;7.05;;;1.50;;
51228;SDS011;37304;52.216;6.874;2023-07-13T00:41:59;4.68;;;1.70;;
51228;SDS011;37304;52.216;6.874;2023-07-13T00:47:00;9.00;;;1.45;;
51228;SDS011;37304;52.216;6.874;2023-07-13T00:52:07;3.75;;;1.42;;
51228;SDS011;37304;52.216;6.874;2023-07-13T00:57:11;4.15;;;1.77;;
51228;SDS011;37304;52.216;6.874;2023-07-13T01:02:15;9.38;;;2.20;;
51228;SDS011;37304;52.216;6.874;2023-07-13T01:07:16;5.57;;;1.67;;
51228;SDS011;37304;52.216;6.874;2023-07-13T01:12:19;7.10;;;1.60;;
51228;SDS011;37304;52.216;6.874;2023-07-13T01:17:19;5.07;;;1.43;;
51228;SDS011;37304;52.216;6.874;2023-07-13T01:22:20;4.85;;;1.67;;
51228;SDS011;37304;52.216;6.874;2023-07-13T01:27:25;6.30;;;1.45;;
51228;SDS011;37304;52.216;6.874;2023-07-13T01:32:26;3.35;;;1.50;;
51228;SDS011;37304;52.216;6.874;2023-07-13T01:37:26;4.30;;;1.40;;
51228;SDS011;37304;52.216;6.874;2023-07-13T01:42:28;6.50;;;1.60;;
51228;SDS011;37304;52.216;6.874;2023-07-13T01:47:28;4.78;;;1.67;;
51228;SDS011;37304;52.216;6.874;2023-07-13T01:52:32;3.38;;;1.92;;
51228;SDS011;37304;52.216;6.874;2023-07-13T01:57:32;6.53;;;1.63;;
51228;SDS011;37304;52.216;6.874;2023-07-13T02:02:33;6.22;;;2.15;;
51228;SDS011;37304;52.216;6.874;2023-07-13T02:07:33;5.97;;;1.70;;
51228;SDS011;37304;52.216;6.874;2023-07-13T02:12:34;6.23;;;1.57;;
51228;SDS011;37304;52.216;6.874;2023-07-13T02:17:35;6.40;;;1.70;;
51228;SDS011;37304;52.216;6.874;2023-07-13T02:22:35;5.53;;;1.58;;
51228;SDS011;37304;52.216;6.874;2023-07-13T02:27:36;4.13;;;1.33;;
51228;SDS011;37304;52.216;6.874;2023-07-13T02:32:37;4.30;;;1.48;;
51228;SDS011;37304;52.216;6.874;2023-07-13T02:37:37;4.50;;;1.63;;
51228;SDS011;37304;52.216;6.874;2023-07-13T02:42:38;5.10;;;1.47;;
51228;SDS011;37304;52.216;6.874;2023-07-13T02:47:40;4.43;;;1.33;;
51228;SDS011;37304;52.216;6.874;2023-07-13T02:52:41;5.32;;;2.10;;
51228;SDS011;37304;52.216;6.874;2023-07-13T02:57:42;4.37;;;1.70;;
51228;SDS011;37304;52.216;6.874;2023-07-13T03:02:42;6.13;;;1.70;;
51228;SDS011;37304;52.216;6.874;2023-07-13T03:07:43;7.53;;;1.83;;
51228;SDS011;37304;52.216;6.874;2023-07-13T03:12:43;3.72;;;1.55;;
51228;SDS011;37304;52.216;6.874;2023-07-13T03:17:44;4.45;;;1.40;;
51228;SDS011;37304;52.216;6.874;2023-07-13T03:22:45;6.60;;;2.00;;
51228;SDS011;37304;52.216;6.874;2023-07-13T03:27:45;5.25;;;1.80;;
51228;SDS011;37304;52.216;6.874;2023-07-13T03:32:46;3.73;;;1.67;;
51228;SDS011;37304;52.216;6.874;2023-07-13T03:37:46;5.93;;;1.55;;
51228;SDS011;37304;52.216;6.874;2023-07-13T03:42:47;6.43;;;1.83;;
51228;SDS011;37304;52.216;6.874;2023-07-13T03:47:47;5.57;;;1.67;;
51228;SDS011;37304;52.216;6.874;2023-07-13T03:52:47;4.70;;;2.13;;
51228;SDS011;37304;52.216;6.874;2023-07-13T03:57:52;3.93;;;1.47;;
51228;SDS011;37304;52.216;6.874;2023-07-13T04:02:58;1.85;;;1.15;;
51228;SDS011;37304;52.216;6.874;2023-07-13T04:07:58;8.60;;;1.60;;
51228;SDS011;37304;52.216;6.874;2023-07-13T04:12:58;6.30;;;1.57;;
51228;SDS011;37304;52.216;6.874;2023-07-13T04:17:59;5.97;;;1.77;;
51228;SDS011;37304;52.216;6.874;2023-07-13T04:22:59;3.10;;;1.37;;
51228;SDS011;37304;52.216;6.874;2023-07-13T04:28:03;6.65;;;1.60;;
51228;SDS011;37304;52.216;6.874;2023-07-13T04:33:04;5.60;;;1.50;;
51228;SDS011;37304;52.216;6.874;2023-07-13T04:38:05;9.43;;;2.03;;
51228;SDS011;37304;52.216;6.874;2023-07-13T04:43:05;5.10;;;1.35;;
51228;SDS011;37304;52.216;6.874;2023-07-13T04:48:06;7.93;;;1.90;;
51228;SDS011;37304;52.216;6.874;2023-07-13T04:53:06;6.07;;;1.60;;
51228;SDS011;37304;52.216;6.874;2023-07-13T04:58:07;6.83;;;1.57;;
51228;SDS011;37304;52.216;6.874;2023-07-13T05:03:07;4.40;;;2.03;;
51228;SDS011;37304;52.216;6.874;2023-07-13T05:08:08;3.57;;;1.57;;
51228;SDS011;37304;52.216;6.874;2023-07-13T05:13:08;7.28;;;1.83;;
51228;SDS011;37304;52.216;6.874;2023-07-13T05:18:09;5.47;;;2.13;;
51228;SDS011;37304;52.216;6.874;2023-07-13T05:23:09;10.87;;;2.63;;
51228;SDS011;37304;52.216;6.874;2023-07-13T05:28:09;6.47;;;2.00;;
51228;SDS011;37304;52.216;6.874;2023-07-13T05:33:10;6.00;;;2.00;;
51228;SDS011;37304;52.216;6.874;2023-07-13T05:38:10;3.37;;;1.87;;
51228;SDS011;37304;52.216;6.874;2023-07-13T05:43:11;10.35;;;2.10;;
51228;SDS011;37304;52.216;6.874;2023-07-13T05:48:12;7.50;;;2.50;;
51228;SDS011;37304;52.216;6.874;2023-07-13T05:53:13;7.40;;;2.20;;
51228;SDS011;37304;52.216;6.874;2023-07-13T05:58:13;7.03;;;2.30;;
51228;SDS011;37304;52.216;6.874;2023-07-13T06:03:14;6.70;;;2.65;;
51228;SDS011;37304;52.216;6.874;2023-07-13T06:08:15;6.90;;;2.25;;
51228;SDS011;37304;52.216;6.874;2023-07-13T06:13:15;7.27;;;2.53;;
51228;SDS011;37304;52.216;6.874;2023-07-13T06:18:16;7.77;;;2.63;;
51228;SDS011;37304;52.216;6.874;2023-07-13T06:23:16;8.82;;;2.50;;
51228;SDS011;37304;52.216;6.874;2023-07-13T06:28:17;9.40;;;3.37;;
51228;SDS011;37304;52.216;6.874;2023-07-13T06:33:17;11.17;;;3.20;;
51228;SDS011;37304;52.216;6.874;2023-07-13T06:38:18;7.60;;;3.13;;
51228;SDS011;37304;52.216;6.874;2023-07-13T06:43:18;9.55;;;3.13;;
51228;SDS011;37304;52.216;6.874;2023-07-13T06:48:20;12.18;;;3.25;;
51228;SDS011;37304;52.216;6.874;2023-07-13T06:53:23;8.10;;;3.70;;
51228;SDS011;37304;52.216;6.874;2023-07-13T06:58:25;9.65;;;4.03;;
51228;SDS011;37304;52.216;6.874;2023-07-13T07:03:25;9.80;;;3.90;;
51228;SDS011;37304;52.216;6.874;2023-07-13T07:08:28;11.38;;;4.57;;
51228;SDS011;37304;52.216;6.874;2023-07-13T07:13:29;11.10;;;4.05;;
51228;SDS011;37304;52.216;6.874;2023-07-13T07:18:30;11.63;;;5.38;;
51228;SDS011;37304;52.216;6.874;2023-07-13T07:23:30;10.27;;;4.87;;
51228;SDS011;37304;52.216;6.874;2023-07-13T07:28:31;10.82;;;4.55;;
51228;SDS011;37304;52.216;6.874;2023-07-13T07:33:32;10.67;;;4.67;;
51228;SDS011;37304;52.216;6.874;2023-07-13T07:38:33;7.80;;;4.43;;
51228;SDS011;37304;52.216;6.874;2023-07-13T07:43:34;12.33;;;5.50;;
51228;SDS011;37304;52.216;6.874;2023-07-13T07:48:35;15.32;;;5.57;;
51228;SDS011;37304;52.216;6.874;2023-07-13T07:53:35;11.30;;;5.70;;
51228;SDS011;37304;52.216;6.874;2023-07-13T07:58:35;16.67;;;6.03;;
51228;SDS011;37304;52.216;6.874;2023-07-13T08:03:36;11.87;;;6.13;;
51228;SDS011;37304;52.216;6.874;2023-07-13T08:08:36;12.00;;;6.00;;
51228;SDS011;37304;52.216;6.874;2023-07-13T08:13:37;11.90;;;6.03;;
51228;SDS011;37304;52.216;6.874;2023-07-13T08:18:37;16.10;;;5.77;;
51228;SDS011;37304;52.216;6.874;2023-07-13T08:23:38;10.60;;;5.43;;
51228;SDS011;37304;52.216;6.874;2023-07-13T08:28:38;12.38;;;6.00;;
51228;SDS011;37304;52.216;6.874;2023-07-13T08:33:39;12.93;;;5.90;;
51228;SDS011;37304;52.216;6.874;2023-07-13T08:38:40;14.20;;;5.95;;
51228;SDS011;37304;52.216;6.874;2023-07-13T08:43:41;12.90;;;5.87;;
51228;SDS011;37304;52.216;6.874;2023-07-13T08:48:52;10.57;;;6.03;;
51228;SDS011;37304;52.216;6.874;2023-07-13T08:53:57;10.70;;;5.18;;
51228;SDS011;37304;52.216;6.874;2023-07-13T08:59:03;15.93;;;5.90;;
51228;SDS011;37304;52.216;6.874;2023-07-13T09:04:13;11.48;;;5.60;;
51228;SDS011;37304;52.216;6.874;2023-07-13T09:14:53;12.95;;;4.97;;
51228;SDS011;37304;52.216;6.874;2023-07-13T09:20:00;12.13;;;5.47;;
51228;SDS011;37304;52.216;6.874;2023-07-13T09:30:35;11.32;;;5.88;;
51228;SDS011;37304;52.216;6.874;2023-07-13T09:35:43;13.82;;;5.90;;
51228;SDS011;37304;52.216;6.874;2023-07-13T09:40:49;14.03;;;5.80;;
51228;SDS011;37304;52.216;6.874;2023-07-13T09:45:59;11.30;;;5.15;;
51228;SDS011;37304;52.216;6.874;2023-07-13T09:51:06;14.43;;;5.40;;
51228;SDS011;37304;52.216;6.874;2023-07-13T09:56:21;13.98;;;5.60;;
51228;SDS011;37304;52.216;6.874;2023-07-13T10:01:34;10.57;;;5.32;;
51228;SDS011;37304;52.216;6.874;2023-07-13T10:06:36;14.95;;;5.55;;
51228;SDS011;37304;52.216;6.874;2023-07-13T10:11:39;13.10;;;5.65;;
51228;SDS011;37304;52.216;6.874;2023-07-13T10:16:41;14.55;;;4.65;;
51228;SDS011;37304;52.216;6.874;2023-07-13T10:21:57;9.60;;;4.93;;
51228;SDS011;37304;52.216;6.874;2023-07-13T10:27:01;11.68;;;4.32;;
51228;SDS011;37304;52.216;6.874;2023-07-13T10:32:10;9.77;;;4.47;;
51228;SDS011;37304;52.216;6.874;2023-07-13T10:37:17;8.10;;;3.67;;
51228;SDS011;37304;52.216;6.874;2023-07-13T10:42:38;8.63;;;4.00;;
51228;SDS011;37304;52.216;6.874;2023-07-13T10:47:42;8.80;;;4.13;;
51228;SDS011;37304;52.216;6.874;2023-07-13T10:52:52;8.52;;;4.07;;
51228;SDS011;37304;52.216;6.874;2023-07-13T10:57:54;6.85;;;3.38;;
51228;SDS011;37304;52.216;6.874;2023-07-13T11:02:56;9.52;;;4.25;;
51228;SDS011;37304;52.216;6.874;2023-07-13T11:08:20;7.00;;;3.53;;
51228;SDS011;37304;52.216;6.874;2023-07-13T11:19:23;12.13;;;4.40;;
51228;SDS011;37304;52.216;6.874;2023-07-13T11:24:28;12.18;;;4.70;;
51228;SDS011;37304;52.216;6.874;2023-07-13T11:29:36;11.98;;;4.45;;
51228;SDS011;37304;52.216;6.874;2023-07-13T11:34:39;7.20;;;3.55;;
51228;SDS011;37304;52.216;6.874;2023-07-13T11:39:41;6.53;;;3.78;;
51228;SDS011;37304;52.216;6.874;2023-07-13T11:44:46;7.70;;;3.03;;
51228;SDS011;37304;52.216;6.874;2023-07-13T11:49:49;4.47;;;2.42;;
51228;SDS011;37304;52.216;6.874;2023-07-13T11:54:53;2.38;;;2.17;;
51228;SDS011;37304;52.216;6.874;2023-07-13T11:59:56;5.32;;;2.47;;
51228;SDS011;37304;52.216;6.874;2023-07-13T12:04:59;5.13;;;1.00;;
51228;SDS011;37304;52.216;6.874;2023-07-13T12:15:37;1.85;;;0.70;;
51228;SDS011;37304;52.216;6.874;2023-07-13T12:20:40;0.80;;;0.60;;
51228;SDS011;37304;52.216;6.874;2023-07-13T12:25:45;0.50;;;0.40;;
51228;SDS011;37304;52.216;6.874;2023-07-13T12:30:47;3.38;;;1.20;;
51228;SDS011;37304;52.216;6.874;2023-07-13T12:35:49;3.38;;;2.20;;
51228;SDS011;37304;52.216;6.874;2023-07-13T12:40:52;3.05;;;1.80;;
51228;SDS011;37304;52.216;6.874;2023-07-13T12:51:01;2.95;;;2.03;;
51228;SDS011;37304;52.216;6.874;2023-07-13T12:56:02;4.32;;;1.90;;
51228;SDS011;37304;52.216;6.874;2023-07-13T13:01:04;3.92;;;2.10;;
51228;SDS011;37304;52.216;6.874;2023-07-13T13:06:17;5.95;;;2.42;;
51228;SDS011;37304;52.216;6.874;2023-07-13T13:11:24;4.38;;;2.40;;
51228;SDS011;37304;52.216;6.874;2023-07-13T13:21:26;5.63;;;2.80;;
51228;SDS011;37304;52.216;6.874;2023-07-13T13:26:27;5.35;;;2.53;;
51228;SDS011;37304;52.216;6.874;2023-07-13T13:31:28;6.00;;;2.20;;
51228;SDS011;37304;52.216;6.874;2023-07-13T13:36:28;5.80;;;1.60;;
51228;SDS011;37304;52.216;6.874;2023-07-13T13:41:30;1.85;;;1.20;;
51228;SDS011;37304;52.216;6.874;2023-07-13T13:46:32;4.05;;;1.88;;
51228;SDS011;37304;52.216;6.874;2023-07-13T13:51:33;4.43;;;2.08;;
51228;SDS011;37304;52.216;6.874;2023-07-13T13:56:33;5.93;;;2.60;;
51228;SDS011;37304;52.216;6.874;2023-07-13T14:01:37;4.07;;;2.93;;
51228;SDS011;37304;52.216;6.874;2023-07-13T14:06:40;8.27;;;3.92;;
51228;SDS011;37304;52.216;6.874;2023-07-13T14:11:42;6.88;;;3.17;;
51228;SDS011;37304;52.216;6.874;2023-07-13T14:16:43;6.95;;;3.80;;
51228;SDS011;37304;52.216;6.874;2023-07-13T14:21:44;5.18;;;3.10;;
51228;SDS011;37304;52.216;6.874;2023-07-13T14:26:53;4.88;;;3.00;;
51228;SDS011;37304;52.216;6.874;2023-07-13T14:31:54;3.95;;;2.13;;
51228;SDS011;37304;52.216;6.874;2023-07-13T14:36:57;3.25;;;2.00;;
51228;SDS011;37304;52.216;6.874;2023-07-13T14:42:00;4.35;;;2.28;;
51228;SDS011;37304;52.216;6.874;2023-07-13T14:47:02;4.53;;;2.28;;
51228;SDS011;37304;52.216;6.874;2023-07-13T14:52:21;2.90;;;1.52;;
51228;SDS011;37304;52.216;6.874;2023-07-13T14:57:23;3.28;;;1.83;;
51228;SDS011;37304;52.216;6.874;2023-07-13T15:02:26;6.07;;;2.47;;
51228;SDS011;37304;52.216;6.874;2023-07-13T15:12:32;2.73;;;1.63;;
51228;SDS011;37304;52.216;6.874;2023-07-13T15:17:37;4.70;;;1.52;;
51228;SDS011;37304;52.216;6.874;2023-07-13T15:22:40;3.85;;;1.73;;
51228;SDS011;37304;52.216;6.874;2023-07-13T15:27:40;4.35;;;1.77;;
51228;SDS011;37304;52.216;6.874;2023-07-13T15:32:42;4.67;;;1.90;;
51228;SDS011;37304;52.216;6.874;2023-07-13T15:37:44;3.70;;;2.13;;
51228;SDS011;37304;52.216;6.874;2023-07-13T15:42:45;3.45;;;1.95;;
51228;SDS011;37304;52.216;6.874;2023-07-13T15:47:49;5.20;;;2.42;;
51228;SDS011;37304;52.216;6.874;2023-07-13T15:52:53;5.85;;;1.83;;
51228;SDS011;37304;52.216;6.874;2023-07-13T15:57:58;3.22;;;1.58;;
51228;SDS011;37304;52.216;6.874;2023-07-13T16:02:58;3.73;;;1.47;;
51228;SDS011;37304;52.216;6.874;2023-07-13T16:07:59;1.67;;;1.23;;
51228;SDS011;37304;52.216;6.874;2023-07-13T16:13:01;4.78;;;1.90;;
51228;SDS011;37304;52.216;6.874;2023-07-13T16:18:04;6.32;;;1.65;;
51228;SDS011;37304;52.216;6.874;2023-07-13T16:23:07;5.25;;;1.83;;
51228;SDS011;37304;52.216;6.874;2023-07-13T16:28:11;2.80;;;2.00;;
51228;SDS011;37304;52.216;6.874;2023-07-13T16:33:12;3.97;;;2.30;;
51228;SDS011;37304;52.216;6.874;2023-07-13T16:38:14;3.10;;;2.00;;
51228;SDS011;37304;52.216;6.874;2023-07-13T16:43:18;2.90;;;1.80;;
51228;SDS011;37304;52.216;6.874;2023-07-13T16:48:21;6.97;;;2.25;;
51228;SDS011;37304;52.216;6.874;2023-07-13T16:53:25;4.03;;;2.20;;
51228;SDS011;37304;52.216;6.874;2023-07-13T16:58:30;4.85;;;2.38;;
51228;SDS011;37304;52.216;6.874;2023-07-13T17:09:07;6.35;;;2.47;;
51228;SDS011;37304;52.216;6.874;2023-07-13T17:14:12;6.47;;;2.85;;
51228;SDS011;37304;52.216;6.874;2023-07-13T17:19:27;5.50;;;3.47;;
51228;SDS011;37304;52.216;6.874;2023-07-13T17:24:31;9.02;;;4.13;;
51228;SDS011;37304;52.216;6.874;2023-07-13T17:29:33;8.68;;;4.18;;
51228;SDS011;37304;52.216;6.874;2023-07-13T17:34:36;5.32;;;3.58;;
51228;SDS011;37304;52.216;6.874;2023-07-13T17:39:45;4.68;;;3.50;;
51228;SDS011;37304;52.216;6.874;2023-07-13T17:44:46;6.38;;;3.60;;
51228;SDS011;37304;52.216;6.874;2023-07-13T17:49:46;10.67;;;3.37;;
51228;SDS011;37304;52.216;6.874;2023-07-13T17:54:58;6.57;;;3.35;;
51228;SDS011;37304;52.216;6.874;2023-07-13T18:00:02;5.30;;;3.65;;
51228;SDS011;37304;52.216;6.874;2023-07-13T18:05:17;6.47;;;4.07;;
51228;SDS011;37304;52.216;6.874;2023-07-13T18:10:23;7.43;;;3.58;;
51228;SDS011;37304;52.216;6.874;2023-07-13T18:15:24;8.07;;;3.40;;
51228;SDS011;37304;52.216;6.874;2023-07-13T18:20:33;6.00;;;2.92;;
51228;SDS011;37304;52.216;6.874;2023-07-13T18:25:34;5.95;;;2.83;;
51228;SDS011;37304;52.216;6.874;2023-07-13T18:30:36;6.20;;;3.05;;
51228;SDS011;37304;52.216;6.874;2023-07-13T18:35:46;5.90;;;2.38;;
51228;SDS011;37304;52.216;6.874;2023-07-13T18:40:47;3.80;;;2.05;;
51228;SDS011;37304;52.216;6.874;2023-07-13T18:45:50;6.18;;;2.80;;
51228;SDS011;37304;52.216;6.874;2023-07-13T18:51:09;3.80;;;2.40;;
51228;SDS011;37304;52.216;6.874;2023-07-13T18:56:11;5.03;;;2.60;;
51228;SDS011;37304;52.216;6.874;2023-07-13T19:01:21;4.97;;;2.67;;
51228;SDS011;37304;52.216;6.874;2023-07-13T19:06:27;4.13;;;2.55;;
51228;SDS011;37304;52.216;6.874;2023-07-13T19:11:28;7.22;;;2.83;;
51228;SDS011;37304;52.216;6.874;2023-07-13T19:16:29;5.35;;;3.05;;
51228;SDS011;37304;52.216;6.874;2023-07-13T19:21:33;5.65;;;3.63;;
51228;SDS011;37304;52.216;6.874;2023-07-13T19:26:39;7.47;;;4.65;;
51228;SDS011;37304;52.216;6.874;2023-07-13T19:31:39;8.32;;;4.43;;
51228;SDS011;37304;52.216;6.874;2023-07-13T19:36:42;9.38;;;4.68;;
51228;SDS011;37304;52.216;6.874;2023-07-13T19:41:44;9.20;;;4.47;;
51228;SDS011;37304;52.216;6.874;2023-07-13T19:46:46;8.50;;;5.22;;
51228;SDS011;37304;52.216;6.874;2023-07-13T19:51:47;8.10;;;5.70;;
51228;SDS011;37304;52.216;6.874;2023-07-13T19:56:50;8.68;;;5.22;;
51228;SDS011;37304;52.216;6.874;2023-07-13T20:01:54;11.55;;;5.90;;
51228;SDS011;37304;52.216;6.874;2023-07-13T20:06:58;10.60;;;5.90;;
51228;SDS011;37304;52.216;6.874;2023-07-13T20:12:00;10.18;;;6.53;;
51228;SDS011;37304;52.216;6.874;2023-07-13T20:17:02;9.02;;;6.35;;
51228;SDS011;37304;52.216;6.874;2023-07-13T20:22:07;10.43;;;6.20;;
51228;SDS011;37304;52.216;6.874;2023-07-13T20:27:12;10.52;;;6.38;;
51228;SDS011;37304;52.216;6.874;2023-07-13T20:32:16;10.10;;;6.60;;
51228;SDS011;37304;52.216;6.874;2023-07-13T20:42:20;17.52;;;8.13;;
51228;SDS011;37304;52.216;6.874;2023-07-13T20:47:21;14.57;;;7.10;;
51228;SDS011;37304;52.216;6.874;2023-07-13T20:52:25;12.25;;;7.15;;
51228;SDS011;37304;52.216;6.874;2023-07-13T20:57:26;13.57;;;6.97;;
51228;SDS011;37304;52.216;6.874;2023-07-13T21:02:27;13.10;;;7.73;;
51228;SDS011;37304;52.216;6.874;2023-07-13T21:07:33;13.05;;;7.60;;
51228;SDS011;37304;52.216;6.874;2023-07-13T21:12:35;17.13;;;6.82;;
51228;SDS011;37304;52.216;6.874;2023-07-13T21:17:35;13.00;;;6.90;;
51228;SDS011;37304;52.216;6.874;2023-07-13T21:22:36;12.52;;;6.65;;
51228;SDS011;37304;52.216;6.874;2023-07-13T21:27:36;16.80;;;7.03;;
51228;SDS011;37304;52.216;6.874;2023-07-13T21:32:37;12.20;;;6.70;;
51228;SDS011;37304;52.216;6.874;2023-07-13T21:37:37;9.90;;;5.73;;
51228;SDS011;37304;52.216;6.874;2023-07-13T21:42:38;10.10;;;5.90;;
51228;SDS011;37304;52.216;6.874;2023-07-13T21:47:38;10.63;;;6.03;;
51228;SDS011;37304;52.216;6.874;2023-07-13T21:52:39;9.50;;;5.83;;
51228;SDS011;37304;52.216;6.874;2023-07-13T21:57:39;10.60;;;6.10;;
51228;SDS011;37304;52.216;6.874;2023-07-13T22:02:40;10.47;;;5.27;;
51228;SDS011;37304;52.216;6.874;2023-07-13T22:07:40;7.70;;;5.35;;
51228;SDS011;37304;52.216;6.874;2023-07-13T22:12:41;11.77;;;5.97;;
51228;SDS011;37304;52.216;6.874;2023-07-13T22:17:43;9.18;;;5.45;;
51228;SDS011;37304;52.216;6.874;2023-07-13T22:22:47;9.13;;;5.70;;
51228;SDS011;37304;52.216;6.874;2023-07-13T22:27:48;13.48;;;5.75;;
51228;SDS011;37304;52.216;6.874;2023-07-13T22:32:48;13.70;;;5.90;;
51228;SDS011;37304;52.216;6.874;2023-07-13T22:37:52;8.35;;;5.22;;
51228;SDS011;37304;52.216;6.874;2023-07-13T22:42:55;9.80;;;5.10;;
51228;SDS011;37304;52.216;6.874;2023-07-13T22:47:55;9.50;;;4.90;;
51228;SDS011;37304;52.216;6.874;2023-07-13T22:52:57;9.27;;;5.33;;
51228;SDS011;37304;52.216;6.874;2023-07-13T22:57:57;8.85;;;5.13;;
51228;SDS011;37304;52.216;6.874;2023-07-13T23:02:58;8.47;;;5.07;;
51228;SDS011;37304;52.216;6.874;2023-07-13T23:07:58;9.63;;;5.10;;
51228;SDS011;37304;52.216;6.874;2023-07-13T23:12:59;11.80;;;5.50;;
51228;SDS011;37304;52.216;6.874;2023-07-13T23:18:02;9.40;;;5.07;;
51228;SDS011;37304;52.216;6.874;2023-07-13T23:23:03;10.18;;;5.53;;
51228;SDS011;37304;52.216;6.874;2023-07-13T23:28:03;7.97;;;5.20;;
51228;SDS011;37304;52.216;6.874;2023-07-13T23:38:22;9.10;;;4.97;;
51228;SDS011;37304;52.216;6.874;2023-07-13T23:43:22;12.48;;;5.45;;
51228;SDS011;37304;52.216;6.874;2023-07-13T23:48:24;8.25;;;4.90;;
51228;SDS011;37304;52.216;6.874;2023-07-13T23:53:25;7.13;;;4.70;;
51228;SDS011;37304;52.216;6.874;2023-07-13T23:58:28;6.72;;;4.80;;
